createdAt,value
2019-04-25T00:00:47.616Z,35.20
2019-04-25T00:03:22.293Z,34.59
2019-04-25T00:05:53.446Z,34.56
2019-04-25T00:08:24.640Z,34.40
2019-04-25T00:10:55.561Z,36.16
2019-04-25T00:13:27.231Z,36.59
2019-04-25T00:15:58.182Z,37.18
2019-04-25T00:18:29.024Z,36.91
2019-04-25T00:21:01.908Z,36.30
2019-04-25T00:23:34.149Z,35.88
2019-04-25T00:26:07.167Z,35.58
2019-04-25T00:28:38.317Z,36.13
2019-04-25T00:31:09.495Z,36.73
2019-04-25T00:33:41.360Z,37.79
2019-04-25T00:36:13.514Z,36.77
2019-04-25T00:38:46.526Z,36.05
2019-04-25T00:41:17.728Z,36.93
2019-04-25T00:43:49.419Z,37.03
2019-04-25T00:46:22.442Z,36.78
2019-04-25T00:48:53.656Z,36.81
2019-04-25T00:51:26.188Z,36.12
2019-04-25T00:53:57.234Z,36.18
2019-04-25T00:56:28.215Z,35.77
2019-04-25T00:59:02.005Z,36.23
2019-04-25T01:01:35.038Z,35.98
2019-04-25T01:04:06.103Z,36.15
2019-04-25T01:06:37.156Z,36.22
2019-04-25T01:09:12.363Z,36.56
2019-04-25T01:11:44.246Z,36.39
2019-04-25T01:14:15.438Z,36.62
2019-04-25T01:16:46.529Z,36.92
2019-04-25T01:19:17.753Z,37.50
2019-04-25T01:21:49.125Z,37.33
2019-04-25T01:24:20.180Z,37.19
2019-04-25T01:26:51.673Z,36.97
2019-04-25T01:29:23.477Z,37.43
2019-04-25T01:31:55.278Z,37.26
2019-04-25T01:34:31.090Z,37.20
2019-04-25T01:37:15.897Z,37.30
2019-04-25T01:39:51.640Z,36.98
2019-04-25T01:42:33.886Z,37.14
2019-04-25T01:45:06.536Z,37.47
2019-04-25T01:47:37.597Z,37.31
2019-04-25T01:50:08.854Z,37.13
2019-04-25T01:52:40.014Z,36.90
2019-04-25T01:55:11.264Z,36.96
2019-04-25T01:57:45.070Z,37.07
2019-04-25T02:00:17.321Z,37.35
2019-04-25T02:02:48.666Z,37.51
2019-04-25T02:05:19.744Z,37.52
2019-04-25T02:07:51.498Z,37.66
2019-04-25T02:10:23.435Z,37.66
2019-04-25T02:13:14.289Z,37.42
2019-04-25T02:15:45.362Z,38.02
2019-04-25T02:18:16.408Z,38.27
2019-04-25T02:20:47.261Z,38.06
2019-04-25T02:23:18.090Z,38.22
2019-04-25T02:25:49.166Z,38.25
2019-04-25T02:28:20.052Z,38.58
2019-04-25T02:30:53.668Z,38.38
2019-04-25T02:33:25.505Z,38.10
2019-04-25T02:35:59.350Z,38.13
2019-04-25T02:38:29.539Z,38.23
2019-04-25T02:41:02.336Z,38.05
2019-04-25T02:43:35.067Z,37.88
2019-04-25T02:46:15.143Z,37.84
2019-04-25T02:49:02.469Z,37.85
2019-04-25T02:51:35.140Z,37.91
2019-04-25T02:54:08.101Z,38.21
2019-04-25T02:56:39.283Z,38.42
2019-04-25T02:59:10.231Z,38.78
2019-04-25T03:01:43.889Z,38.72
2019-04-25T03:04:14.689Z,38.62
2019-04-25T03:06:45.727Z,38.38
2019-04-25T03:09:16.800Z,38.35
2019-04-25T03:11:47.966Z,38.35
2019-04-25T03:14:19.083Z,38.99
2019-04-25T03:16:50.155Z,39.85
2019-04-25T03:19:39.494Z,40.03
2019-04-25T03:22:17.996Z,39.58
2019-04-25T03:24:49.026Z,39.07
2019-04-25T03:27:20.226Z,38.99
2019-04-25T03:29:51.184Z,38.99
2019-04-25T03:32:25.743Z,39.68
2019-04-25T03:34:55.300Z,40.57
2019-04-25T03:37:26.420Z,41.22
2019-04-25T03:39:57.455Z,40.95
2019-04-25T03:42:28.490Z,41.24
2019-04-25T03:44:59.452Z,41.09
2019-04-25T03:47:30.522Z,40.74
2019-04-25T03:50:05.738Z,40.63
2019-04-25T03:52:36.088Z,39.89
2019-04-25T03:55:07.695Z,40.09
2019-04-25T03:57:39.611Z,39.83
2019-04-25T04:00:10.875Z,39.54
2019-04-25T04:02:41.923Z,39.14
2019-04-25T04:05:13.913Z,38.96
2019-04-25T04:07:45.842Z,39.03
2019-04-25T04:10:16.927Z,39.02
2019-04-25T04:12:47.841Z,39.31
2019-04-25T04:15:19.401Z,40.12
2019-04-25T04:18:00.895Z,39.79
2019-04-25T04:20:36.397Z,39.39
2019-04-25T04:23:15.428Z,39.36
2019-04-25T04:25:46.649Z,39.69
2019-04-25T04:28:17.826Z,39.77
2019-04-25T04:30:48.776Z,40.15
2019-04-25T04:33:29.819Z,40.91
2019-04-25T04:35:54.326Z,40.17
2019-04-25T04:38:25.429Z,39.88
2019-04-25T04:40:56.405Z,39.92
2019-04-25T04:43:27.309Z,39.87
2019-04-25T04:45:58.294Z,39.84
2019-04-25T04:48:29.257Z,39.87
2019-04-25T04:51:00.206Z,39.76
2019-04-25T04:53:31.139Z,39.74
2019-04-25T04:56:02.105Z,39.65
2019-04-25T04:58:34.292Z,39.56
2019-04-25T05:01:05.345Z,39.49
2019-04-25T05:03:38.094Z,39.58
2019-04-25T05:06:17.363Z,39.53
2019-04-25T05:08:54.754Z,39.53
2019-04-25T05:11:25.704Z,39.48
2019-04-25T05:13:56.569Z,39.43
2019-04-25T05:16:27.420Z,39.40
2019-04-25T05:18:58.512Z,39.33
2019-04-25T05:21:29.458Z,39.28
2019-04-25T05:24:00.458Z,39.24
2019-04-25T05:26:31.441Z,39.28
2019-04-25T05:29:04.342Z,39.19
2019-04-25T05:31:39.869Z,39.12
2019-04-25T05:34:10.945Z,39.09
2019-04-25T05:36:41.784Z,39.04
2019-04-25T05:39:15.282Z,38.92
2019-04-25T05:41:54.018Z,38.91
2019-04-25T05:44:27.332Z,38.86
2019-04-25T05:46:58.013Z,38.86
2019-04-25T05:49:28.961Z,38.76
2019-04-25T05:51:59.933Z,38.69
2019-04-25T05:54:30.994Z,38.57
2019-04-25T05:57:03.606Z,38.51
2019-04-25T05:59:34.615Z,38.50
2019-04-25T06:02:05.721Z,38.46
2019-04-25T06:04:36.652Z,38.40
2019-04-25T06:07:07.632Z,38.37
2019-04-25T06:09:40.457Z,38.28
2019-04-25T06:12:13.516Z,38.22
2019-04-25T06:14:44.374Z,38.11
2019-04-25T06:17:34.362Z,38.07
2019-04-25T06:20:08.199Z,38.16
2019-04-25T06:22:57.249Z,38.04
2019-04-25T06:25:34.158Z,37.96
2019-04-25T06:28:06.739Z,37.82
2019-04-25T06:30:37.690Z,37.73
2019-04-25T06:33:08.534Z,37.57
2019-04-25T06:35:39.607Z,37.53
2019-04-25T06:38:10.671Z,37.37
2019-04-25T06:40:41.742Z,37.33
2019-04-25T06:43:13.443Z,37.21
2019-04-25T06:45:50.253Z,37.13
2019-04-25T06:48:25.032Z,37.05
2019-04-25T06:50:56.201Z,37.07
2019-04-25T06:53:27.052Z,37.02
2019-04-25T06:55:58.013Z,36.86
2019-04-25T06:58:29.046Z,36.85
2019-04-25T07:01:01.071Z,36.85
2019-04-25T07:03:32.198Z,36.64
2019-04-25T07:06:03.486Z,36.55
2019-04-25T07:08:35.320Z,36.34
2019-04-25T07:11:06.621Z,36.25
2019-04-25T07:13:38.824Z,36.17
2019-04-25T07:16:09.861Z,36.09
2019-04-25T07:18:40.724Z,36.03
2019-04-25T07:21:11.780Z,35.92
2019-04-25T07:23:43.518Z,35.85
2019-04-25T07:26:17.639Z,35.87
2019-04-25T07:28:56.420Z,35.65
2019-04-25T07:31:38.198Z,35.70
2019-04-25T07:34:11.222Z,35.68
2019-04-25T07:36:42.309Z,35.55
2019-04-25T07:39:13.587Z,35.58
2019-04-25T07:41:44.505Z,35.46
2019-04-25T07:44:15.638Z,35.41
2019-04-25T07:46:46.624Z,35.56
2019-04-25T07:49:17.570Z,35.55
2019-04-25T07:51:48.511Z,35.46
2019-04-25T07:54:19.606Z,35.50
2019-04-25T07:56:50.696Z,35.39
2019-04-25T07:59:21.541Z,35.38
2019-04-25T08:01:53.560Z,35.35
2019-04-25T08:04:24.750Z,35.36
2019-04-25T08:06:56.006Z,35.30
2019-04-25T08:09:27.504Z,35.31
2019-04-25T08:11:59.212Z,35.27
2019-04-25T08:14:33.888Z,35.12
2019-04-25T08:17:06.952Z,35.07
2019-04-25T08:19:38.021Z,35.19
2019-04-25T08:22:09.773Z,35.14
2019-04-25T08:24:41.222Z,35.28
2019-04-25T08:27:13.399Z,35.14
2019-04-25T08:29:45.549Z,35.25
2019-04-25T08:32:17.439Z,35.21
2019-04-25T08:34:48.410Z,35.20
2019-04-25T08:37:21.154Z,35.20
2019-04-25T08:39:53.559Z,35.19
2019-04-25T08:42:24.935Z,35.28
2019-04-25T08:44:56.003Z,35.29
2019-04-25T08:47:27.085Z,35.25
2019-04-25T08:50:00.066Z,35.17
2019-04-25T08:52:31.835Z,35.23
2019-04-25T08:55:07.004Z,35.22
2019-04-25T08:57:48.576Z,35.32
2019-04-25T09:00:31.698Z,35.31
2019-04-25T09:03:05.967Z,35.29
2019-04-25T09:05:39.364Z,35.39
2019-04-25T09:08:11.384Z,35.52
2019-04-25T09:10:43.703Z,35.46
2019-04-25T09:13:15.396Z,35.31
2019-04-25T09:15:46.485Z,35.25
2019-04-25T09:18:17.438Z,35.41
2019-04-25T09:20:48.397Z,35.44
2019-04-25T09:23:19.467Z,35.53
2019-04-25T09:25:50.505Z,35.61
2019-04-25T09:28:21.616Z,35.37
2019-04-25T09:30:53.988Z,35.35
2019-04-25T09:33:25.142Z,35.53
2019-04-25T09:35:56.206Z,35.47
2019-04-25T09:38:27.353Z,35.45
2019-04-25T09:40:58.304Z,35.41
2019-04-25T09:43:29.309Z,35.49
2019-04-25T09:46:08.339Z,35.49
2019-04-25T09:48:44.652Z,35.46
2019-04-25T09:51:18.370Z,35.47
2019-04-25T09:53:51.557Z,35.41
2019-04-25T09:56:24.392Z,35.33
2019-04-25T09:58:57.149Z,35.26
2019-04-25T10:01:28.479Z,35.27
2019-04-25T10:04:01.852Z,35.20
2019-04-25T10:06:33.310Z,35.32
2019-04-25T10:09:06.555Z,35.25
2019-04-25T10:11:38.358Z,35.20
2019-04-25T10:14:32.629Z,35.17
2019-04-25T10:17:03.880Z,35.09
2019-04-25T10:19:34.985Z,35.12
2019-04-25T10:22:06.042Z,35.04
2019-04-25T10:24:38.455Z,35.04
2019-04-25T10:27:09.592Z,34.98
2019-04-25T10:29:47.334Z,34.98
2019-04-25T10:32:15.072Z,35.27
2019-04-25T10:34:46.242Z,35.85
2019-04-25T10:37:17.471Z,35.01
2019-04-25T10:39:48.950Z,34.90
2019-04-25T10:42:20.087Z,34.81
2019-04-25T10:44:51.074Z,34.76
2019-04-25T10:47:22.071Z,34.66
2019-04-25T10:49:53.675Z,34.67
2019-04-25T10:52:26.193Z,35.28
2019-04-25T10:54:57.277Z,35.59
2019-04-25T10:57:28.652Z,35.67
2019-04-25T11:00:06.329Z,35.70
2019-04-25T11:02:33.918Z,35.71
2019-04-25T11:05:07.732Z,35.94
2019-04-25T11:07:39.756Z,35.86
2019-04-25T11:10:14.030Z,36.09
2019-04-25T11:12:45.517Z,35.95
2019-04-25T11:15:16.570Z,36.04
2019-04-25T11:17:47.981Z,36.23
2019-04-25T11:20:30.049Z,35.77
2019-04-25T11:23:01.117Z,35.68
2019-04-25T11:25:32.198Z,35.73
2019-04-25T11:28:07.969Z,35.66
2019-04-25T11:30:39.669Z,35.57
2019-04-25T11:33:10.712Z,35.58
2019-04-25T11:35:41.766Z,35.64
2019-04-25T11:38:20.241Z,35.47
2019-04-25T11:40:55.124Z,35.53
2019-04-25T11:43:26.281Z,35.66
2019-04-25T11:45:57.377Z,34.50
2019-04-25T11:48:28.401Z,33.72
2019-04-25T11:53:55.796Z,31.56
2019-04-25T11:56:26.866Z,29.66
2019-04-25T11:58:57.947Z,29.73
2019-04-25T12:01:29.510Z,29.31
2019-04-25T12:14:27.793Z,18.49
2019-04-25T12:16:58.645Z,16.37
2019-04-25T12:19:35.651Z,16.43
2019-04-25T12:22:04.060Z,15.75
2019-04-25T12:24:35.090Z,14.72
2019-04-25T12:27:06.085Z,14.55
2019-04-25T12:29:38.811Z,14.33
2019-04-25T12:32:10.180Z,14.07
2019-04-25T12:34:41.134Z,13.88
2019-04-25T12:37:12.181Z,13.61
2019-04-25T12:39:43.036Z,13.69
2019-04-25T12:42:14.455Z,13.51
2019-04-25T12:44:59.395Z,13.74
2019-04-25T12:47:34.957Z,13.92
2019-04-25T12:50:06.329Z,13.86
2019-04-25T12:52:37.265Z,14.14
2019-04-25T12:55:10.340Z,14.73
2019-04-25T12:57:41.390Z,14.51
2019-04-25T13:00:14.665Z,14.01
2019-04-25T13:02:45.590Z,13.92
2019-04-25T13:05:16.807Z,13.69
2019-04-25T13:07:47.938Z,13.71
2019-04-25T13:10:18.909Z,13.37
2019-04-25T13:12:49.974Z,13.67
2019-04-25T13:15:21.365Z,13.66
2019-04-25T13:17:53.646Z,13.19
2019-04-25T13:20:24.722Z,13.19
2019-04-25T13:22:55.910Z,12.35
2019-04-25T13:25:28.769Z,12.49
2019-04-25T13:28:08.431Z,12.68
2019-04-25T13:30:47.110Z,12.78
2019-04-25T13:33:25.718Z,12.66
2019-04-25T13:35:58.693Z,12.48
2019-04-25T13:38:29.683Z,12.25
2019-04-25T13:41:01.607Z,12.50
2019-04-25T13:43:32.991Z,13.07
2019-04-25T13:46:03.993Z,13.06
2019-04-25T13:48:35.672Z,13.34
2019-04-25T13:51:06.768Z,13.64
2019-04-25T13:53:37.708Z,13.15
2019-04-25T13:56:09.291Z,12.95
2019-04-25T13:58:40.376Z,13.72
2019-04-25T14:01:17.055Z,13.73
2019-04-25T14:03:46.345Z,13.57
2019-04-25T14:06:17.856Z,13.42
2019-04-25T14:08:48.822Z,13.21
2019-04-25T14:11:20.715Z,13.71
2019-04-25T14:13:52.569Z,12.86
2019-04-25T14:16:31.112Z,12.83
2019-04-25T14:19:04.078Z,12.55
2019-04-25T14:21:35.044Z,12.60
2019-04-25T14:24:06.021Z,11.75
2019-04-25T14:26:37.068Z,11.14
2019-04-25T14:29:08.069Z,11.25
2019-04-25T14:31:45.157Z,10.69
2019-04-25T14:34:13.289Z,10.65
2019-04-25T14:36:44.457Z,10.65
2019-04-25T14:39:16.449Z,10.96
2019-04-25T14:41:47.689Z,11.22
2019-04-25T14:44:18.781Z,11.40
2019-04-25T14:46:49.740Z,11.58
2019-04-25T14:49:21.635Z,11.62
2019-04-25T14:51:53.596Z,11.81
2019-04-25T14:54:32.661Z,11.81
2019-04-25T14:57:16.493Z,11.71
2019-04-25T14:59:47.567Z,11.10
2019-04-25T15:02:19.039Z,10.83
2019-04-25T15:04:50.076Z,10.71
2019-04-25T15:07:21.033Z,10.97
2019-04-25T15:09:52.065Z,10.88
2019-04-25T15:12:23.562Z,10.58
2019-04-25T15:14:54.600Z,10.36
2019-04-25T15:17:26.415Z,10.52
2019-04-25T15:19:57.425Z,10.75
2019-04-25T15:22:28.390Z,11.03
2019-04-25T15:24:59.325Z,10.35
2019-04-25T15:27:30.178Z,10.02
2019-04-25T15:30:02.192Z,10.27
2019-04-25T15:32:34.809Z,10.01
2019-04-25T15:35:07.797Z,9.93
2019-04-25T15:37:49.530Z,9.80
2019-04-25T15:40:34.457Z,9.49
2019-04-25T15:43:14.029Z,10.27
2019-04-25T15:45:46.877Z,10.27
2019-04-25T15:48:17.853Z,10.29
2019-04-25T15:50:49.037Z,10.46
2019-04-25T15:53:20.132Z,10.32
2019-04-25T15:55:52.072Z,10.55
2019-04-25T15:58:23.068Z,10.83
2019-04-25T16:00:54.216Z,10.83
2019-04-25T16:03:25.274Z,10.94
2019-04-25T16:05:56.229Z,11.06
2019-04-25T16:08:27.639Z,11.08
2019-04-25T16:10:58.615Z,11.20
2019-04-25T16:13:30.183Z,10.86
2019-04-25T16:16:01.116Z,11.02
2019-04-25T16:18:33.100Z,10.84
2019-04-25T16:21:04.334Z,10.93
2019-04-25T16:23:36.378Z,11.06
2019-04-25T16:26:07.349Z,11.31
2019-04-25T16:28:38.434Z,11.73
2019-04-25T16:31:11.412Z,12.04
2019-04-25T16:33:42.515Z,12.79
2019-04-25T16:36:13.587Z,13.39
2019-04-25T16:38:44.557Z,13.63
2019-04-25T16:41:15.718Z,13.91
2019-04-25T16:43:48.678Z,14.05
2019-04-25T16:46:20.423Z,14.17
2019-04-25T16:48:51.437Z,14.25
2019-04-25T16:51:22.697Z,14.18
2019-04-25T16:53:53.672Z,14.57
2019-04-25T16:56:24.612Z,14.77
2019-04-25T16:58:55.605Z,14.74
2019-04-25T17:01:26.748Z,14.99
2019-04-25T17:03:57.764Z,15.09
2019-04-25T17:06:30.116Z,15.11
2019-04-25T17:09:01.411Z,15.43
2019-04-25T17:11:32.344Z,15.47
2019-04-25T17:14:11.136Z,15.55
2019-04-25T17:16:53.369Z,15.55
2019-04-25T17:19:26.530Z,15.87
2019-04-25T17:21:57.459Z,15.99
2019-04-25T17:24:28.458Z,16.13
2019-04-25T17:27:01.057Z,16.23
2019-04-25T17:29:32.534Z,16.35
2019-04-25T17:32:23.770Z,16.51
2019-04-25T17:34:59.334Z,16.63
2019-04-25T17:37:50.017Z,16.97
2019-04-25T17:40:26.150Z,17.17
2019-04-25T17:42:57.314Z,17.37
2019-04-25T17:45:30.297Z,17.49
2019-04-25T17:48:01.256Z,17.87
2019-04-25T17:50:32.946Z,17.94
2019-04-25T17:53:04.244Z,18.27
2019-04-25T17:55:35.652Z,18.33
2019-04-25T17:58:06.701Z,18.37
2019-04-25T18:00:39.942Z,18.56
2019-04-25T18:03:11.365Z,18.75
2019-04-25T18:05:42.404Z,18.83
2019-04-25T18:08:13.374Z,18.98
2019-04-25T18:10:44.353Z,19.26
2019-04-25T18:13:15.311Z,19.47
2019-04-25T18:15:48.297Z,19.56
2019-04-25T18:18:24.072Z,19.83
2019-04-25T18:20:55.430Z,20.27
2019-04-25T18:23:46.544Z,20.47
2019-04-25T18:26:22.083Z,20.92
2019-04-25T18:28:54.934Z,20.89
2019-04-25T18:31:26.030Z,21.08
2019-04-25T18:33:58.915Z,21.29
2019-04-25T18:36:40.478Z,21.51
2019-04-25T18:39:28.367Z,22.09
2019-04-25T18:42:12.894Z,22.12
2019-04-25T18:44:44.130Z,23.07
2019-04-25T18:47:15.303Z,22.63
2019-04-25T18:49:46.757Z,22.85
2019-04-25T18:52:37.205Z,23.60
2019-04-25T18:55:19.393Z,23.38
2019-04-25T18:58:03.929Z,23.61
2019-04-25T19:00:39.396Z,23.59
2019-04-25T19:03:22.207Z,23.83
2019-04-25T19:05:52.640Z,23.93
2019-04-25T19:08:23.625Z,24.24
2019-04-25T19:10:54.739Z,24.31
2019-04-25T19:13:25.980Z,24.42
2019-04-25T19:15:57.193Z,24.60
2019-04-25T19:18:28.208Z,24.85
2019-04-25T19:20:59.253Z,24.98
2019-04-25T19:23:30.305Z,25.47
2019-04-25T19:26:01.280Z,25.18
2019-04-25T19:28:32.325Z,25.27
2019-04-25T19:31:03.520Z,25.35
2019-04-25T19:33:35.775Z,25.76
2019-04-25T19:36:07.235Z,25.39
2019-04-25T19:38:38.300Z,25.44
2019-04-25T19:41:16.818Z,25.51
2019-04-25T19:43:59.192Z,25.48
2019-04-25T19:46:38.113Z,26.41
2019-04-25T19:49:09.188Z,28.51
2019-04-25T19:51:41.665Z,28.34
2019-04-25T19:54:12.799Z,28.95
2019-04-25T19:56:43.929Z,28.81
2019-04-25T19:59:14.939Z,27.95
2019-04-25T20:01:46.393Z,29.48
2019-04-25T20:04:25.154Z,29.20
2019-04-25T20:07:14.315Z,31.09
2019-04-25T20:10:05.030Z,30.42
2019-04-25T20:12:40.801Z,30.61
2019-04-25T20:15:12.733Z,30.40
2019-04-25T20:17:44.820Z,30.64
2019-04-25T20:20:16.677Z,30.61
2019-04-25T20:22:48.156Z,30.12
2019-04-25T20:25:19.184Z,29.41
2019-04-25T20:27:50.792Z,28.71
2019-04-25T20:30:23.512Z,28.33
2019-04-25T20:32:55.671Z,28.66
2019-04-25T20:35:26.770Z,30.48
2019-04-25T20:37:57.954Z,30.10
2019-04-25T20:40:28.984Z,31.95
2019-04-25T20:43:00.058Z,32.37
2019-04-25T20:45:30.916Z,32.95
2019-04-25T20:48:02.011Z,31.46
2019-04-25T20:50:33.054Z,31.37
2019-04-25T20:53:03.999Z,32.07
2019-04-25T20:55:34.949Z,31.50
2019-04-25T20:58:05.914Z,30.89
2019-04-25T21:00:43.709Z,31.22
2019-04-25T21:03:14.658Z,32.54
2019-04-25T21:05:46.415Z,31.25
2019-04-25T21:08:17.742Z,33.81
2019-04-25T21:10:50.458Z,33.83
2019-04-25T21:13:23.489Z,33.71
2019-04-25T21:15:56.414Z,35.63
2019-04-25T21:18:45.581Z,35.55
2019-04-25T21:21:16.578Z,35.24
2019-04-25T21:23:47.580Z,35.59
2019-04-25T21:26:18.499Z,34.79
2019-04-25T21:28:50.859Z,35.59
2019-04-25T21:31:22.173Z,36.25
2019-04-25T21:33:53.148Z,36.03
2019-04-25T21:36:24.529Z,36.02
2019-04-25T21:38:55.883Z,36.59
2019-04-25T21:41:29.196Z,36.30
2019-04-25T21:44:02.306Z,36.64
2019-04-25T21:46:35.082Z,37.32
2019-04-25T21:49:06.604Z,37.26
2019-04-25T21:51:37.694Z,38.46
2019-04-25T21:54:08.642Z,37.70
2019-04-25T21:56:40.012Z,38.03
2019-04-25T21:59:11.243Z,37.42
2019-04-25T22:01:43.921Z,36.79
2019-04-25T22:04:14.966Z,37.65
2019-04-25T22:06:46.446Z,38.22
2019-04-25T22:09:19.189Z,38.63
2019-04-25T22:11:50.657Z,38.57
2019-04-25T22:14:21.784Z,38.61
2019-04-25T22:16:53.264Z,38.49
2019-04-25T22:19:24.713Z,39.02
2019-04-25T22:21:56.447Z,40.26
2019-04-25T22:24:28.456Z,39.05
2019-04-25T22:27:01.290Z,38.94
2019-04-25T22:29:34.280Z,39.06
2019-04-25T22:32:13.308Z,38.80
2019-04-25T22:34:52.569Z,38.79
2019-04-25T22:37:22.187Z,38.25
2019-04-25T22:39:53.369Z,38.49
2019-04-25T22:42:24.449Z,37.44
2019-04-25T22:44:55.409Z,37.19
2019-04-25T22:47:26.295Z,36.73
2019-04-25T22:49:57.250Z,39.40
2019-04-25T22:52:28.529Z,41.33
2019-04-25T22:54:59.885Z,40.78
2019-04-25T22:57:31.852Z,40.28
2019-04-25T23:00:05.074Z,39.59
2019-04-25T23:02:47.030Z,39.64
2019-04-25T23:05:22.765Z,39.31
2019-04-25T23:07:53.753Z,41.92
2019-04-25T23:10:25.113Z,41.22
2019-04-25T23:12:56.139Z,39.69
2019-04-25T23:15:27.073Z,39.31
2019-04-25T23:17:58.449Z,38.88
2019-04-25T23:20:29.411Z,37.71
2019-04-25T23:23:00.492Z,38.80
2019-04-25T23:25:33.374Z,39.96
2019-04-25T23:28:06.403Z,40.47
2019-04-25T23:30:40.122Z,41.01
2019-04-25T23:33:11.092Z,40.55
2019-04-25T23:35:44.108Z,40.45
2019-04-25T23:38:16.080Z,40.77
2019-04-25T23:40:47.044Z,41.60
2019-04-25T23:43:18.462Z,41.82
2019-04-25T23:45:49.419Z,41.79
2019-04-25T23:48:20.805Z,41.77
2019-04-25T23:50:53.632Z,41.32
2019-04-25T23:53:24.640Z,40.97
2019-04-25T23:55:55.728Z,40.73
2019-04-25T23:58:26.781Z,40.76
